Hitachimaru — JD2063 — position and weather

sailwx.info

Track history (hours):
 
Tides and Currents Weather Stations Pressure Air Temp Water Temp Dewpoint Dewpoint Depression Visibility Wind Speed Wind Dir Waves Ship Positions

Hitachimaru

Last reported at 2016-Feb-13 00:23 UTC. Time now 2016-Feb-13 00:35 UTC.
Position N 34°35' E 135°27'.

Length 83 m; draft 4.7 m.

Type: Cargo ship. MMSI: 431301756.

Date/timePositionNaut miles runAvg speedWind from/ knotsBaromVisibWave heightAir tempDewpointWater temp
2016-Feb-13 00:23N 34°35' E 135°27'0 0.0
2016-Feb-10 23:09N 34°35' E 135°27'4 6.7
2016-Feb-10 22:33N 34°36' E 135°22'1111.4
2016-Feb-10 21:33N 34°35' E 135°09'1413.5
2016-Feb-10 20:30N 34°38' E 134°52'4 0.1
2016-Feb-08 22:19N 34°40' E 134°47'1113.3
2016-Feb-08 21:32N 34°38' E 134°60'1110.8
2016-Feb-08 20:33N 34°27' E 135°03'1312.2
2016-Feb-08 19:31N 34°15' E 134°60'1111.4
2016-Feb-08 18:32N 34°04' E 135°00'  
2016-Feb-06 08:29N 35°10' E 139°45'1112.3
2016-Feb-06 07:33N 35°22' E 139°42'1312.6
2016-Feb-06 06:33N 35°31' E 139°52'1010.4
2016-Feb-06 05:33N 35°41' E 139°57'1 0.8
2016-Feb-06 04:32N 35°41' E 139°57'0 0.0
2016-Feb-06 03:26N 35°41' E 139°57'0 0.0
2016-Feb-06 01:33N 35°41' E 139°57'1 0.9
2016-Feb-06 00:29N 35°40' E 139°57'0 0.0
2016-Feb-05 23:23N 35°40' E 139°57'0 0.0
2016-Feb-05 22:29N 35°40' E 139°57'0 0.0
2016-Feb-05 21:29N 35°40' E 139°57'0 0.0
2016-Feb-05 20:29N 35°40' E 139°57'0 0.0
2016-Feb-05 19:29N 35°40' E 139°57'4 4.0
2016-Feb-05 18:33N 35°37' E 139°57'0 0.0
2016-Feb-05 17:26N 35°37' E 139°57'0 0.0
2016-Feb-05 16:32N 35°37' E 139°57'0 0.1
2016-Feb-05 15:32N 35°37' E 139°57'0 0.0
2016-Feb-05 14:26N 35°37' E 139°57'0 0.0
2016-Feb-05 13:32N 35°37' E 139°57'0 0.0
2016-Feb-05 11:32N 35°37' E 139°57'0 0.0
2016-Feb-05 10:20N 35°37' E 139°57'0 0.0
2016-Feb-05 09:31N 35°37' E 139°57'0 0.0
2016-Feb-05 08:25N 35°37' E 139°57'0 0.1
2016-Feb-05 07:31N 35°37' E 139°57'5 5.6
2016-Feb-05 06:34N 35°32' E 139°54'1211.7
2016-Feb-05 05:33N 35°23' E 139°46'1110.9
2016-Feb-05 04:34N 35°12' E 139°47'226 8.4
2016-Feb-04 01:33N 34°31' E 135°15'1010.1
2016-Feb-04 00:33N 34°35' E 135°27'1 0.1
2016-Feb-03 14:24N 34°34' E 135°27'1 1.4
2016-Feb-03 13:32N 34°35' E 135°27'0 0.0
2016-Feb-03 12:20N 34°35' E 135°27'0 0.0
2016-Feb-03 11:08N 34°35' E 135°27'0 0.0
2016-Feb-03 10:32N 34°35' E 135°27'0 0.0
2016-Feb-03 09:32N 34°35' E 135°27'0 0.0
2016-Feb-03 08:32N 34°35' E 135°27'0 0.0
2016-Feb-03 03:32N 34°35' E 135°27'0 0.0
2016-Feb-03 01:20N 34°35' E 135°27'0 0.0
2016-Feb-03 00:26N 34°35' E 135°27'0 0.0
2016-Feb-02 23:32N 34°35' E 135°27'0 0.0
2016-Feb-02 22:32N 34°35' E 135°27'0 0.1
2016-Feb-02 21:33N 34°35' E 135°27'1 0.3
2016-Feb-02 17:05N 34°34' E 135°27'0 0.0
2016-Feb-02 13:30N 34°34' E 135°27'1 0.1
2016-Feb-02 05:33N 34°35' E 135°27'1211.7
2016-Feb-02 04:33N 34°35' E 135°12'1212.2
2016-Feb-02 03:33N 34°36' E 134°58'  
Track history (hours):
 
Tides and Currents Weather Stations Pressure Air Temp Water Temp Dewpoint Dewpoint Depression Visibility Wind Speed Wind Dir Waves Ship Positions

Hitachimaru

Last reported at 2016-Feb-13 00:23 UTC. Time now 2016-Feb-13 00:35 UTC.
Position N 34°35' E 135°27'.

Length 83 m; draft 4.7 m.

Type: Cargo ship. MMSI: 431301756.

Date/timePositionNaut miles runAvg speedWind from/ knotsBaromVisibWave heightAir tempDewpointWater temp
2016-Feb-13 00:23N 34°35' E 135°27'0 0.0
2016-Feb-10 23:09N 34°35' E 135°27'4 6.7
2016-Feb-10 22:33N 34°36' E 135°22'1111.4
2016-Feb-10 21:33N 34°35' E 135°09'1413.5
2016-Feb-10 20:30N 34°38' E 134°52'4 0.1
2016-Feb-08 22:19N 34°40' E 134°47'1113.3
2016-Feb-08 21:32N 34°38' E 134°60'1110.8
2016-Feb-08 20:33N 34°27' E 135°03'1312.2
2016-Feb-08 19:31N 34°15' E 134°60'1111.4
2016-Feb-08 18:32N 34°04' E 135°00'  
2016-Feb-06 08:29N 35°10' E 139°45'1112.3
2016-Feb-06 07:33N 35°22' E 139°42'1312.6
2016-Feb-06 06:33N 35°31' E 139°52'1010.4
2016-Feb-06 05:33N 35°41' E 139°57'1 0.8
2016-Feb-06 04:32N 35°41' E 139°57'0 0.0
2016-Feb-06 03:26N 35°41' E 139°57'0 0.0
2016-Feb-06 01:33N 35°41' E 139°57'1 0.9
2016-Feb-06 00:29N 35°40' E 139°57'0 0.0
2016-Feb-05 23:23N 35°40' E 139°57'0 0.0
2016-Feb-05 22:29N 35°40' E 139°57'0 0.0
2016-Feb-05 21:29N 35°40' E 139°57'0 0.0
2016-Feb-05 20:29N 35°40' E 139°57'0 0.0
2016-Feb-05 19:29N 35°40' E 139°57'4 4.0
2016-Feb-05 18:33N 35°37' E 139°57'0 0.0
2016-Feb-05 17:26N 35°37' E 139°57'0 0.0
2016-Feb-05 16:32N 35°37' E 139°57'0 0.1
2016-Feb-05 15:32N 35°37' E 139°57'0 0.0
2016-Feb-05 14:26N 35°37' E 139°57'0 0.0
2016-Feb-05 13:32N 35°37' E 139°57'0 0.0
2016-Feb-05 11:32N 35°37' E 139°57'0 0.0
2016-Feb-05 10:20N 35°37' E 139°57'0 0.0
2016-Feb-05 09:31N 35°37' E 139°57'0 0.0
2016-Feb-05 08:25N 35°37' E 139°57'0 0.1
2016-Feb-05 07:31N 35°37' E 139°57'5 5.6
2016-Feb-05 06:34N 35°32' E 139°54'1211.7
2016-Feb-05 05:33N 35°23' E 139°46'1110.9
2016-Feb-05 04:34N 35°12' E 139°47'226 8.4
2016-Feb-04 01:33N 34°31' E 135°15'1010.1
2016-Feb-04 00:33N 34°35' E 135°27'1 0.1
2016-Feb-03 14:24N 34°34' E 135°27'1 1.4
2016-Feb-03 13:32N 34°35' E 135°27'0 0.0
2016-Feb-03 12:20N 34°35' E 135°27'0 0.0
2016-Feb-03 11:08N 34°35' E 135°27'0 0.0
2016-Feb-03 10:32N 34°35' E 135°27'0 0.0
2016-Feb-03 09:32N 34°35' E 135°27'0 0.0
2016-Feb-03 08:32N 34°35' E 135°27'0 0.0
2016-Feb-03 03:32N 34°35' E 135°27'0 0.0
2016-Feb-03 01:20N 34°35' E 135°27'0 0.0
2016-Feb-03 00:26N 34°35' E 135°27'0 0.0
2016-Feb-02 23:32N 34°35' E 135°27'0 0.0
2016-Feb-02 22:32N 34°35' E 135°27'0 0.1
2016-Feb-02 21:33N 34°35' E 135°27'1 0.3
2016-Feb-02 17:05N 34°34' E 135°27'0 0.0
2016-Feb-02 13:30N 34°34' E 135°27'1 0.1
2016-Feb-02 05:33N 34°35' E 135°27'1211.7
2016-Feb-02 04:33N 34°35' E 135°12'1212.2
2016-Feb-02 03:33N 34°36' E 134°58'  

Dump ship's entire track history